sensor_id;sensor_type;location;lat;lon;timestamp;pressure;altitude;pressure_sealevel;temperature;humidity
67052;BME280;53957;47.222;18.670;2023-03-15T00:00:05;99023.34;;;8.84;100.00
67052;BME280;53957;47.222;18.670;2023-03-15T00:03:15;99031.44;;;8.79;100.00
67052;BME280;53957;47.222;18.670;2023-03-15T00:06:17;99036.00;;;8.64;100.00
67052;BME280;53957;47.222;18.670;2023-03-15T00:09:21;99039.63;;;8.68;100.00
67052;BME280;53957;47.222;18.670;2023-03-15T00:12:23;99047.19;;;8.75;100.00
67052;BME280;53957;47.222;18.670;2023-03-15T00:15:26;99040.59;;;8.73;100.00
67052;BME280;53957;47.222;18.670;2023-03-15T00:18:29;99034.44;;;8.63;100.00
67052;BME280;53957;47.222;18.670;2023-03-15T00:21:33;99029.59;;;8.65;100.00
67052;BME280;53957;47.222;18.670;2023-03-15T00:24:37;99014.81;;;8.59;100.00
67052;BME280;53957;47.222;18.670;2023-03-15T00:27:49;98997.22;;;8.49;100.00
67052;BME280;53957;47.222;18.670;2023-03-15T00:31:07;98999.41;;;8.47;100.00
67052;BME280;53957;47.222;18.670;2023-03-15T00:34:11;98996.53;;;8.44;100.00
67052;BME280;53957;47.222;18.670;2023-03-15T00:37:15;99000.28;;;8.43;100.00
67052;BME280;53957;47.222;18.670;2023-03-15T00:40:22;98996.66;;;8.38;100.00
67052;BME280;53957;47.222;18.670;2023-03-15T00:43:26;98999.78;;;8.41;100.00
67052;BME280;53957;47.222;18.670;2023-03-15T00:46:29;98998.03;;;8.36;100.00
67052;BME280;53957;47.222;18.670;2023-03-15T00:49:32;99002.53;;;8.35;100.00
67052;BME280;53957;47.222;18.670;2023-03-15T00:52:37;98987.69;;;8.34;100.00
67052;BME280;53957;47.222;18.670;2023-03-15T00:55:41;98997.22;;;8.35;100.00
67052;BME280;53957;47.222;18.670;2023-03-15T00:58:45;99007.84;;;8.35;100.00
67052;BME280;53957;47.222;18.670;2023-03-15T01:01:48;98999.03;;;8.26;100.00
67052;BME280;53957;47.222;18.670;2023-03-15T01:05:11;99009.84;;;8.30;100.00
67052;BME280;53957;47.222;18.670;2023-03-15T01:08:15;99011.81;;;8.24;100.00
67052;BME280;53957;47.222;18.670;2023-03-15T01:11:20;99011.03;;;8.24;99.56
67052;BME280;53957;47.222;18.670;2023-03-15T01:14:25;99014.97;;;8.26;98.59
67052;BME280;53957;47.222;18.670;2023-03-15T01:17:28;99003.94;;;8.19;99.60
67052;BME280;53957;47.222;18.670;2023-03-15T01:20:32;99012.03;;;8.14;99.30
67052;BME280;53957;47.222;18.670;2023-03-15T01:23:36;99019.78;;;8.10;100.00
67052;BME280;53957;47.222;18.670;2023-03-15T01:26:39;99013.56;;;8.15;98.01
67052;BME280;53957;47.222;18.670;2023-03-15T01:29:45;99002.94;;;8.15;95.96
67052;BME280;53957;47.222;18.670;2023-03-15T01:32:48;99003.06;;;8.10;98.07
67052;BME280;53957;47.222;18.670;2023-03-15T01:36:03;99013.66;;;8.10;96.24
67052;BME280;53957;47.222;18.670;2023-03-15T01:39:07;99002.84;;;8.06;96.74
67052;BME280;53957;47.222;18.670;2023-03-15T01:42:13;99007.00;;;7.98;97.61
67052;BME280;53957;47.222;18.670;2023-03-15T01:49:29;99001.56;;;8.03;96.49
67052;BME280;53957;47.222;18.670;2023-03-15T01:52:35;99005.41;;;7.97;97.29
67052;BME280;53957;47.222;18.670;2023-03-15T01:55:39;99005.72;;;7.96;96.51
67052;BME280;53957;47.222;18.670;2023-03-15T01:58:45;98990.38;;;7.93;97.32
67052;BME280;53957;47.222;18.670;2023-03-15T02:01:49;98998.06;;;7.94;95.53
67052;BME280;53957;47.222;18.670;2023-03-15T02:04:59;98998.34;;;7.93;96.12
67052;BME280;53957;47.222;18.670;2023-03-15T02:08:06;98997.94;;;7.85;96.13
67052;BME280;53957;47.222;18.670;2023-03-15T02:11:12;98999.91;;;7.94;96.89
67052;BME280;53957;47.222;18.670;2023-03-15T02:14:15;98990.06;;;7.80;96.85
67052;BME280;53957;47.222;18.670;2023-03-15T02:17:24;98985.25;;;7.82;96.05
67052;BME280;53957;47.222;18.670;2023-03-15T02:20:40;98989.28;;;7.80;96.86
67052;BME280;53957;47.222;18.670;2023-03-15T02:23:56;98989.78;;;7.82;97.06
67052;BME280;53957;47.222;18.670;2023-03-15T02:27:05;98984.94;;;7.84;96.38
67052;BME280;53957;47.222;18.670;2023-03-15T02:30:09;98995.09;;;7.82;96.49
67052;BME280;53957;47.222;18.670;2023-03-15T02:33:22;98997.34;;;7.74;96.91
67052;BME280;53957;47.222;18.670;2023-03-15T02:36:29;99005.31;;;7.74;98.84
67052;BME280;53957;47.222;18.670;2023-03-15T02:39:33;99008.06;;;7.69;97.47
67052;BME280;53957;47.222;18.670;2023-03-15T02:42:36;99008.41;;;7.63;99.21
67052;BME280;53957;47.222;18.670;2023-03-15T02:45:39;99014.03;;;7.61;99.41
67052;BME280;53957;47.222;18.670;2023-03-15T02:48:44;99011.50;;;7.70;97.69
67052;BME280;53957;47.222;18.670;2023-03-15T02:51:48;99018.78;;;7.64;99.23
67052;BME280;53957;47.222;18.670;2023-03-15T02:54:51;99016.19;;;7.59;100.00
67052;BME280;53957;47.222;18.670;2023-03-15T02:57:56;99017.56;;;7.56;100.00
67052;BME280;53957;47.222;18.670;2023-03-15T03:01:00;99022.94;;;7.51;100.00
67052;BME280;53957;47.222;18.670;2023-03-15T03:04:03;99015.94;;;7.41;100.00
67052;BME280;53957;47.222;18.670;2023-03-15T03:07:06;99023.34;;;7.45;100.00
67052;BME280;53957;47.222;18.670;2023-03-15T03:10:13;99022.06;;;7.42;100.00
67052;BME280;53957;47.222;18.670;2023-03-15T03:13:17;99013.88;;;7.38;100.00
67052;BME280;53957;47.222;18.670;2023-03-15T03:16:20;99026.84;;;7.40;100.00
67052;BME280;53957;47.222;18.670;2023-03-15T03:19:26;99019.97;;;7.39;100.00
67052;BME280;53957;47.222;18.670;2023-03-15T03:22:29;99017.31;;;7.39;100.00
67052;BME280;53957;47.222;18.670;2023-03-15T03:25:33;99024.50;;;7.38;100.00
67052;BME280;53957;47.222;18.670;2023-03-15T03:28:38;99015.44;;;7.39;100.00
67052;BME280;53957;47.222;18.670;2023-03-15T03:31:43;99027.16;;;7.38;100.00
67052;BME280;53957;47.222;18.670;2023-03-15T03:34:46;99021.91;;;7.33;100.00
67052;BME280;53957;47.222;18.670;2023-03-15T03:37:50;99019.84;;;7.30;100.00
67052;BME280;53957;47.222;18.670;2023-03-15T03:40:57;99028.66;;;7.25;100.00
67052;BME280;53957;47.222;18.670;2023-03-15T03:44:02;99037.44;;;7.26;100.00
67052;BME280;53957;47.222;18.670;2023-03-15T03:47:05;99039.34;;;7.20;100.00
67052;BME280;53957;47.222;18.670;2023-03-15T03:50:10;99052.25;;;7.27;100.00
67052;BME280;53957;47.222;18.670;2023-03-15T03:53:14;99053.91;;;7.23;100.00
67052;BME280;53957;47.222;18.670;2023-03-15T03:56:17;99059.97;;;7.23;100.00
67052;BME280;53957;47.222;18.670;2023-03-15T03:59:20;99068.22;;;7.22;100.00
67052;BME280;53957;47.222;18.670;2023-03-15T04:02:24;99066.88;;;7.24;100.00
67052;BME280;53957;47.222;18.670;2023-03-15T04:05:30;99075.41;;;7.21;100.00
67052;BME280;53957;47.222;18.670;2023-03-15T04:08:33;99087.37;;;7.19;100.00
67052;BME280;53957;47.222;18.670;2023-03-15T04:11:39;99103.31;;;7.19;98.10
67052;BME280;53957;47.222;18.670;2023-03-15T04:14:46;99103.84;;;7.16;98.16
67052;BME280;53957;47.222;18.670;2023-03-15T04:17:50;99097.84;;;7.10;98.10
67052;BME280;53957;47.222;18.670;2023-03-15T04:21:01;99100.91;;;6.98;99.26
67052;BME280;53957;47.222;18.670;2023-03-15T04:24:04;99100.16;;;6.98;100.00
67052;BME280;53957;47.222;18.670;2023-03-15T04:27:09;99108.00;;;6.84;98.26
67052;BME280;53957;47.222;18.670;2023-03-15T04:30:16;99112.91;;;6.71;98.29
67052;BME280;53957;47.222;18.670;2023-03-15T04:33:20;99116.22;;;6.63;97.41
67052;BME280;53957;47.222;18.670;2023-03-15T04:36:27;99129.00;;;6.56;97.34
67052;BME280;53957;47.222;18.670;2023-03-15T04:39:30;99137.56;;;6.48;96.93
67052;BME280;53957;47.222;18.670;2023-03-15T04:42:34;99140.09;;;6.34;95.78
67052;BME280;53957;47.222;18.670;2023-03-15T04:45:37;99157.09;;;6.27;94.69
67052;BME280;53957;47.222;18.670;2023-03-15T04:48:40;99161.59;;;6.27;94.39
67052;BME280;53957;47.222;18.670;2023-03-15T04:51:43;99154.22;;;6.24;94.17
67052;BME280;53957;47.222;18.670;2023-03-15T04:54:47;99159.81;;;6.22;94.92
67052;BME280;53957;47.222;18.670;2023-03-15T04:57:50;99158.47;;;6.20;95.15
67052;BME280;53957;47.222;18.670;2023-03-15T05:00:54;99153.81;;;6.11;97.36
67052;BME280;53957;47.222;18.670;2023-03-15T05:03:58;99151.75;;;6.03;96.98
67052;BME280;53957;47.222;18.670;2023-03-15T05:07:02;99150.75;;;5.94;96.03
67052;BME280;53957;47.222;18.670;2023-03-15T05:10:05;99137.75;;;5.97;96.83
67052;BME280;53957;47.222;18.670;2023-03-15T05:13:10;99126.47;;;5.87;97.32
67052;BME280;53957;47.222;18.670;2023-03-15T05:16:13;99137.16;;;5.71;97.53
67052;BME280;53957;47.222;18.670;2023-03-15T05:19:16;99143.03;;;5.68;97.16
67052;BME280;53957;47.222;18.670;2023-03-15T05:22:21;99130.00;;;5.77;97.44
67052;BME280;53957;47.222;18.670;2023-03-15T05:25:28;99122.91;;;5.67;96.75
67052;BME280;53957;47.222;18.670;2023-03-15T05:28:32;99118.72;;;5.61;98.20
67052;BME280;53957;47.222;18.670;2023-03-15T05:31:36;99105.56;;;5.51;99.51
67052;BME280;53957;47.222;18.670;2023-03-15T05:34:40;99115.69;;;5.43;98.41
67052;BME280;53957;47.222;18.670;2023-03-15T05:37:44;99118.06;;;5.45;98.03
67052;BME280;53957;47.222;18.670;2023-03-15T05:40:51;99111.47;;;5.42;97.01
67052;BME280;53957;47.222;18.670;2023-03-15T05:43:55;99117.37;;;5.29;97.62
67052;BME280;53957;47.222;18.670;2023-03-15T05:46:59;99117.13;;;5.25;98.04
67052;BME280;53957;47.222;18.670;2023-03-15T05:50:03;99133.31;;;5.13;98.51
67052;BME280;53957;47.222;18.670;2023-03-15T05:53:08;99130.72;;;5.03;98.35
67052;BME280;53957;47.222;18.670;2023-03-15T05:56:12;99151.62;;;4.99;97.59
67052;BME280;53957;47.222;18.670;2023-03-15T05:59:15;99144.50;;;4.95;97.01
67052;BME280;53957;47.222;18.670;2023-03-15T06:02:19;99140.81;;;4.91;96.48
67052;BME280;53957;47.222;18.670;2023-03-15T06:05:25;99158.28;;;4.87;97.75
67052;BME280;53957;47.222;18.670;2023-03-15T06:08:30;99150.88;;;4.83;96.52
67052;BME280;53957;47.222;18.670;2023-03-15T06:11:34;99151.69;;;4.84;97.32
67052;BME280;53957;47.222;18.670;2023-03-15T06:14:38;99158.28;;;4.87;96.77
67052;BME280;53957;47.222;18.670;2023-03-15T06:17:41;99167.78;;;4.88;96.52
67052;BME280;53957;47.222;18.670;2023-03-15T06:20:47;99170.97;;;4.84;97.47
67052;BME280;53957;47.222;18.670;2023-03-15T06:23:52;99155.63;;;4.81;97.13
67052;BME280;53957;47.222;18.670;2023-03-15T06:26:54;99169.34;;;4.89;96.81
67052;BME280;53957;47.222;18.670;2023-03-15T06:29:58;99177.50;;;4.97;96.90
67052;BME280;53957;47.222;18.670;2023-03-15T06:33:04;99174.59;;;5.04;97.08
67052;BME280;53957;47.222;18.670;2023-03-15T06:36:10;99160.06;;;5.02;96.99
67052;BME280;53957;47.222;18.670;2023-03-15T06:39:33;99154.47;;;5.08;96.48
67052;BME280;53957;47.222;18.670;2023-03-15T06:42:37;99148.91;;;5.15;98.92
67052;BME280;53957;47.222;18.670;2023-03-15T06:45:41;99160.75;;;5.23;97.17
67052;BME280;53957;47.222;18.670;2023-03-15T06:48:49;99159.94;;;5.22;98.08
67052;BME280;53957;47.222;18.670;2023-03-15T06:51:52;99168.38;;;5.29;98.16
67052;BME280;53957;47.222;18.670;2023-03-15T06:55:15;99165.91;;;5.48;98.71
67052;BME280;53957;47.222;18.670;2023-03-15T06:58:20;99178.44;;;5.27;97.75
67052;BME280;53957;47.222;18.670;2023-03-15T07:01:30;99173.66;;;5.35;98.54
67052;BME280;53957;47.222;18.670;2023-03-15T07:04:33;99178.69;;;5.31;98.33
67052;BME280;53957;47.222;18.670;2023-03-15T07:07:38;99189.53;;;5.35;98.82
67052;BME280;53957;47.222;18.670;2023-03-15T07:10:43;99184.78;;;5.31;98.33
67052;BME280;53957;47.222;18.670;2023-03-15T07:13:46;99197.22;;;5.26;99.17
67052;BME280;53957;47.222;18.670;2023-03-15T07:16:51;99198.25;;;5.35;99.39
67052;BME280;53957;47.222;18.670;2023-03-15T07:19:57;99201.41;;;5.37;99.93
67052;BME280;53957;47.222;18.670;2023-03-15T07:23:00;99209.63;;;5.30;100.00
67052;BME280;53957;47.222;18.670;2023-03-15T07:26:05;99195.34;;;5.31;99.26
67052;BME280;53957;47.222;18.670;2023-03-15T07:29:10;99201.13;;;5.39;100.00
67052;BME280;53957;47.222;18.670;2023-03-15T07:32:13;99204.22;;;5.51;99.19
67052;BME280;53957;47.222;18.670;2023-03-15T07:35:25;99190.22;;;5.45;99.97
67052;BME280;53957;47.222;18.670;2023-03-15T07:38:29;99207.44;;;5.43;99.69
67052;BME280;53957;47.222;18.670;2023-03-15T07:41:32;99209.53;;;5.51;99.43
67052;BME280;53957;47.222;18.670;2023-03-15T07:44:38;99209.59;;;5.36;99.11
67052;BME280;53957;47.222;18.670;2023-03-15T07:47:41;99206.66;;;5.42;99.76
67052;BME280;53957;47.222;18.670;2023-03-15T07:50:48;99207.16;;;5.50;99.54
67052;BME280;53957;47.222;18.670;2023-03-15T07:53:53;99223.50;;;5.57;97.82
67052;BME280;53957;47.222;18.670;2023-03-15T07:56:56;99226.97;;;5.52;98.50
67052;BME280;53957;47.222;18.670;2023-03-15T07:59:59;99230.47;;;5.42;97.37
67052;BME280;53957;47.222;18.670;2023-03-15T08:03:02;99213.97;;;5.61;98.05
67052;BME280;53957;47.222;18.670;2023-03-15T08:06:06;99232.16;;;5.68;96.83
67052;BME280;53957;47.222;18.670;2023-03-15T08:09:09;99235.06;;;5.71;98.44
67052;BME280;53957;47.222;18.670;2023-03-15T08:12:14;99245.03;;;5.85;99.45
67052;BME280;53957;47.222;18.670;2023-03-15T08:15:18;99242.75;;;5.68;97.19
67052;BME280;53957;47.222;18.670;2023-03-15T08:18:21;99255.63;;;5.85;98.37
67052;BME280;53957;47.222;18.670;2023-03-15T08:21:26;99256.72;;;5.78;97.74
67052;BME280;53957;47.222;18.670;2023-03-15T08:24:30;99266.75;;;5.82;97.64
67052;BME280;53957;47.222;18.670;2023-03-15T08:27:33;99273.38;;;5.79;97.96
67052;BME280;53957;47.222;18.670;2023-03-15T08:30:37;99271.09;;;5.62;97.70
67052;BME280;53957;47.222;18.670;2023-03-15T08:33:40;99272.16;;;5.61;97.93
67052;BME280;53957;47.222;18.670;2023-03-15T08:36:45;99275.91;;;5.55;98.69
67052;BME280;53957;47.222;18.670;2023-03-15T08:39:49;99279.03;;;5.57;96.85
67052;BME280;53957;47.222;18.670;2023-03-15T08:42:59;99289.66;;;5.52;97.48
67052;BME280;53957;47.222;18.670;2023-03-15T08:46:11;99296.22;;;5.64;97.51
67052;BME280;53957;47.222;18.670;2023-03-15T08:49:37;99297.00;;;5.65;96.31
67052;BME280;53957;47.222;18.670;2023-03-15T08:52:42;99301.69;;;5.78;96.03
67052;BME280;53957;47.222;18.670;2023-03-15T08:55:56;99300.56;;;6.00;97.09
67052;BME280;53957;47.222;18.670;2023-03-15T08:58:59;99293.22;;;5.82;94.60
67052;BME280;53957;47.222;18.670;2023-03-15T09:02:03;99295.25;;;6.00;95.58
67052;BME280;53957;47.222;18.670;2023-03-15T09:05:07;99288.38;;;5.94;94.15
67052;BME280;53957;47.222;18.670;2023-03-15T09:08:34;99297.34;;;6.03;94.08
67052;BME280;53957;47.222;18.670;2023-03-15T09:11:58;99301.50;;;6.15;92.14
67052;BME280;53957;47.222;18.670;2023-03-15T09:15:21;99313.75;;;6.05;91.79
67052;BME280;53957;47.222;18.670;2023-03-15T09:18:44;99308.22;;;6.02;93.00
67052;BME280;53957;47.222;18.670;2023-03-15T09:21:56;99303.31;;;5.74;91.92
67052;BME280;53957;47.222;18.670;2023-03-15T09:25:39;99317.59;;;5.73;90.93
67052;BME280;53957;47.222;18.670;2023-03-15T09:28:43;99331.91;;;5.67;89.84
67052;BME280;53957;47.222;18.670;2023-03-15T09:32:26;99337.72;;;5.74;91.93
67052;BME280;53957;47.222;18.670;2023-03-15T09:35:51;99335.06;;;5.74;90.47
67052;BME280;53957;47.222;18.670;2023-03-15T09:38:54;99328.72;;;5.70;86.01
67052;BME280;53957;47.222;18.670;2023-03-15T09:42:27;99335.56;;;5.76;86.79
67052;BME280;53957;47.222;18.670;2023-03-15T09:49:36;99341.59;;;5.87;87.35
67052;BME280;53957;47.222;18.670;2023-03-15T09:53:54;99338.94;;;6.03;86.61
67052;BME280;53957;47.222;18.670;2023-03-15T09:56:43;99349.75;;;5.96;83.86
67052;BME280;53957;47.222;18.670;2023-03-15T09:59:51;99344.44;;;6.11;82.12
67052;BME280;53957;47.222;18.670;2023-03-15T10:03:21;99358.25;;;5.93;81.21
67052;BME280;53957;47.222;18.670;2023-03-15T10:06:29;99346.06;;;5.97;81.19
67052;BME280;53957;47.222;18.670;2023-03-15T10:09:44;99351.91;;;5.99;81.25
67052;BME280;53957;47.222;18.670;2023-03-15T10:13:37;99375.44;;;6.06;82.44
67052;BME280;53957;47.222;18.670;2023-03-15T10:17:10;99384.47;;;6.00;79.70
67052;BME280;53957;47.222;18.670;2023-03-15T10:20:41;99377.28;;;5.95;79.37
67052;BME280;53957;47.222;18.670;2023-03-15T10:23:52;99383.69;;;5.99;79.31
67052;BME280;53957;47.222;18.670;2023-03-15T10:27:37;99393.13;;;6.16;81.04
67052;BME280;53957;47.222;18.670;2023-03-15T10:30:49;99403.19;;;6.13;78.61
67052;BME280;53957;47.222;18.670;2023-03-15T10:34:01;99413.38;;;6.36;80.33
67052;BME280;53957;47.222;18.670;2023-03-15T10:37:13;99409.50;;;6.23;77.19
67052;BME280;53957;47.222;18.670;2023-03-15T10:40:42;99425.91;;;6.20;77.55
67052;BME280;53957;47.222;18.670;2023-03-15T10:43:59;99437.31;;;6.20;78.28
67052;BME280;53957;47.222;18.670;2023-03-15T10:47:12;99444.94;;;6.27;76.95
67052;BME280;53957;47.222;18.670;2023-03-15T10:50:45;99452.94;;;6.17;76.85
67052;BME280;53957;47.222;18.670;2023-03-15T10:54:04;99449.75;;;6.25;77.30
67052;BME280;53957;47.222;18.670;2023-03-15T10:57:13;99461.66;;;6.27;76.87
67052;BME280;53957;47.222;18.670;2023-03-15T11:00:34;99465.50;;;6.45;77.39
67052;BME280;53957;47.222;18.670;2023-03-15T11:04:11;99470.81;;;6.45;76.29
67052;BME280;53957;47.222;18.670;2023-03-15T11:07:35;99475.34;;;6.45;76.60
67052;BME280;53957;47.222;18.670;2023-03-15T11:10:54;99466.56;;;6.50;75.49
67052;BME280;53957;47.222;18.670;2023-03-15T11:18:45;99472.41;;;6.47;76.84
67052;BME280;53957;47.222;18.670;2023-03-15T11:21:49;99464.97;;;6.49;74.93
67052;BME280;53957;47.222;18.670;2023-03-15T11:25:14;99471.44;;;6.32;74.15
67052;BME280;53957;47.222;18.670;2023-03-15T11:28:43;99465.00;;;6.43;74.31
67052;BME280;53957;47.222;18.670;2023-03-15T11:32:15;99463.16;;;6.44;74.26
67052;BME280;53957;47.222;18.670;2023-03-15T11:35:42;99471.31;;;6.53;74.23
67052;BME280;53957;47.222;18.670;2023-03-15T11:39:14;99473.00;;;6.38;73.46
67052;BME280;53957;47.222;18.670;2023-03-15T11:42:47;99481.03;;;6.68;75.26
67052;BME280;53957;47.222;18.670;2023-03-15T11:46:38;99476.13;;;6.40;72.92
67052;BME280;53957;47.222;18.670;2023-03-15T11:50:04;99493.84;;;6.50;71.04
67052;BME280;53957;47.222;18.670;2023-03-15T11:57:42;99497.78;;;6.63;70.79
67052;BME280;53957;47.222;18.670;2023-03-15T12:08:16;99509.78;;;6.90;68.44
67052;BME280;53957;47.222;18.670;2023-03-15T12:14:36;99504.38;;;7.05;66.68
67052;BME280;53957;47.222;18.670;2023-03-15T12:18:04;99514.78;;;6.97;65.36
67052;BME280;53957;47.222;18.670;2023-03-15T12:21:14;99509.44;;;7.02;64.70
67052;BME280;53957;47.222;18.670;2023-03-15T12:24:35;99506.59;;;6.93;63.79
67052;BME280;53957;47.222;18.670;2023-03-15T12:27:46;99513.47;;;6.94;63.31
67052;BME280;53957;47.222;18.670;2023-03-15T12:30:59;99522.50;;;6.93;63.76
67052;BME280;53957;47.222;18.670;2023-03-15T12:34:04;99513.87;;;7.12;62.96
67052;BME280;53957;47.222;18.670;2023-03-15T12:41:05;99520.87;;;6.97;63.00
67052;BME280;53957;47.222;18.670;2023-03-15T12:44:26;99523.03;;;6.90;60.97
67052;BME280;53957;47.222;18.670;2023-03-15T12:50:51;99534.09;;;7.07;58.56
67052;BME280;53957;47.222;18.670;2023-03-15T12:53:55;99544.03;;;7.26;61.27
67052;BME280;53957;47.222;18.670;2023-03-15T12:57:01;99537.72;;;7.17;57.57
67052;BME280;53957;47.222;18.670;2023-03-15T13:00:13;99542.59;;;6.99;59.35
67052;BME280;53957;47.222;18.670;2023-03-15T13:03:22;99541.50;;;7.05;59.09
67052;BME280;53957;47.222;18.670;2023-03-15T13:07:04;99535.16;;;7.06;57.75
67052;BME280;53957;47.222;18.670;2023-03-15T13:10:27;99543.31;;;7.15;59.42
67052;BME280;53957;47.222;18.670;2023-03-15T13:20:50;99561.19;;;6.94;57.96
67052;BME280;53957;47.222;18.670;2023-03-15T13:23:58;99556.97;;;6.93;56.41
67052;BME280;53957;47.222;18.670;2023-03-15T13:30:36;99568.31;;;6.99;56.23
67052;BME280;53957;47.222;18.670;2023-03-15T13:33:41;99571.00;;;6.93;56.09
67052;BME280;53957;47.222;18.670;2023-03-15T13:36:47;99563.84;;;6.94;56.71
67052;BME280;53957;47.222;18.670;2023-03-15T13:40:16;99565.09;;;7.07;56.58
67052;BME280;53957;47.222;18.670;2023-03-15T13:43:39;99571.69;;;7.09;56.22
67052;BME280;53957;47.222;18.670;2023-03-15T13:46:46;99581.66;;;7.28;57.63
67052;BME280;53957;47.222;18.670;2023-03-15T13:50:15;99590.69;;;7.62;57.38
67052;BME280;53957;47.222;18.670;2023-03-15T13:53:24;99593.59;;;7.65;55.98
67052;BME280;53957;47.222;18.670;2023-03-15T13:57:04;99596.34;;;7.55;55.93
67052;BME280;53957;47.222;18.670;2023-03-15T14:00:12;99603.28;;;7.46;54.68
67052;BME280;53957;47.222;18.670;2023-03-15T14:03:19;99606.81;;;7.36;53.79
67052;BME280;53957;47.222;18.670;2023-03-15T14:06:26;99625.91;;;7.38;57.19
67052;BME280;53957;47.222;18.670;2023-03-15T14:09:30;99620.19;;;7.20;56.33
67052;BME280;53957;47.222;18.670;2023-03-15T14:12:33;99622.91;;;7.10;55.33
67052;BME280;53957;47.222;18.670;2023-03-15T14:15:42;99616.28;;;7.02;54.89
67052;BME280;53957;47.222;18.670;2023-03-15T14:18:51;99635.34;;;7.09;56.04
67052;BME280;53957;47.222;18.670;2023-03-15T14:21:59;99629.56;;;6.97;56.25
67052;BME280;53957;47.222;18.670;2023-03-15T14:25:19;99638.06;;;6.99;56.49
67052;BME280;53957;47.222;18.670;2023-03-15T14:28:24;99632.16;;;7.13;57.36
67052;BME280;53957;47.222;18.670;2023-03-15T14:31:29;99639.59;;;7.11;56.19
67052;BME280;53957;47.222;18.670;2023-03-15T14:34:43;99653.31;;;7.23;58.50
67052;BME280;53957;47.222;18.670;2023-03-15T14:41:18;99655.00;;;7.03;57.60
67052;BME280;53957;47.222;18.670;2023-03-15T14:44:42;99660.81;;;7.11;60.85
67052;BME280;53957;47.222;18.670;2023-03-15T14:48:06;99669.34;;;6.97;56.58
67052;BME280;53957;47.222;18.670;2023-03-15T14:51:17;99661.41;;;6.92;56.61
67052;BME280;53957;47.222;18.670;2023-03-15T14:54:22;99670.72;;;6.89;55.59
67052;BME280;53957;47.222;18.670;2023-03-15T14:57:45;99677.12;;;6.73;54.88
67052;BME280;53957;47.222;18.670;2023-03-15T15:01:02;99686.97;;;6.62;54.04
67052;BME280;53957;47.222;18.670;2023-03-15T15:04:05;99693.31;;;6.61;53.10
67052;BME280;53957;47.222;18.670;2023-03-15T15:07:11;99679.84;;;6.47;52.77
67052;BME280;53957;47.222;18.670;2023-03-15T15:10:15;99696.81;;;6.41;52.27
67052;BME280;53957;47.222;18.670;2023-03-15T15:13:22;99693.88;;;6.42;53.48
67052;BME280;53957;47.222;18.670;2023-03-15T15:16:25;99702.34;;;6.39;54.19
67052;BME280;53957;47.222;18.670;2023-03-15T15:19:30;99712.16;;;6.44;55.89
67052;BME280;53957;47.222;18.670;2023-03-15T15:22:33;99707.94;;;6.38;55.67
67052;BME280;53957;47.222;18.670;2023-03-15T15:25:47;99716.94;;;6.32;53.86
67052;BME280;53957;47.222;18.670;2023-03-15T15:29:13;99718.25;;;6.34;52.06
67052;BME280;53957;47.222;18.670;2023-03-15T15:32:36;99724.63;;;6.33;52.68
67052;BME280;53957;47.222;18.670;2023-03-15T15:35:39;99716.94;;;6.37;52.33
67052;BME280;53957;47.222;18.670;2023-03-15T15:39:00;99736.28;;;6.42;51.71
67052;BME280;53957;47.222;18.670;2023-03-15T15:42:09;99733.09;;;6.30;49.31
67052;BME280;53957;47.222;18.670;2023-03-15T15:45:21;99738.66;;;6.34;50.27
67052;BME280;53957;47.222;18.670;2023-03-15T15:48:26;99751.66;;;6.25;48.78
67052;BME280;53957;47.222;18.670;2023-03-15T15:51:40;99743.16;;;6.23;46.16
67052;BME280;53957;47.222;18.670;2023-03-15T15:54:45;99751.13;;;6.18;46.25
67052;BME280;53957;47.222;18.670;2023-03-15T15:57:49;99743.97;;;6.13;44.96
67052;BME280;53957;47.222;18.670;2023-03-15T16:00:54;99751.63;;;6.15;46.60
67052;BME280;53957;47.222;18.670;2023-03-15T16:03:59;99748.72;;;6.06;45.55
67052;BME280;53957;47.222;18.670;2023-03-15T16:07:02;99759.56;;;6.04;46.84
67052;BME280;53957;47.222;18.670;2023-03-15T16:10:21;99768.81;;;5.96;45.15
67052;BME280;53957;47.222;18.670;2023-03-15T16:13:25;99764.56;;;5.95;44.30
67052;BME280;53957;47.222;18.670;2023-03-15T16:16:31;99776.19;;;5.89;44.94
67052;BME280;53957;47.222;18.670;2023-03-15T16:19:34;99767.47;;;5.94;44.48
67052;BME280;53957;47.222;18.670;2023-03-15T16:22:39;99770.09;;;5.84;45.69
67052;BME280;53957;47.222;18.670;2023-03-15T16:25:48;99776.69;;;5.76;44.12
67052;BME280;53957;47.222;18.670;2023-03-15T16:28:53;99773.22;;;5.70;45.60
67052;BME280;53957;47.222;18.670;2023-03-15T16:31:56;99779.56;;;5.64;44.62
67052;BME280;53957;47.222;18.670;2023-03-15T16:35:18;99788.03;;;5.61;46.37
67052;BME280;53957;47.222;18.670;2023-03-15T16:38:21;99794.38;;;5.60;44.74
67052;BME280;53957;47.222;18.670;2023-03-15T16:41:28;99799.09;;;5.53;45.89
67052;BME280;53957;47.222;18.670;2023-03-15T16:44:31;99800.72;;;5.54;45.34
67052;BME280;53957;47.222;18.670;2023-03-15T16:47:34;99808.63;;;5.48;45.78
67052;BME280;53957;47.222;18.670;2023-03-15T16:50:38;99806.25;;;5.47;47.04
67052;BME280;53957;47.222;18.670;2023-03-15T16:53:43;99827.13;;;5.43;47.20
67052;BME280;53957;47.222;18.670;2023-03-15T16:56:46;99822.34;;;5.45;46.37
67052;BME280;53957;47.222;18.670;2023-03-15T16:59:50;99836.91;;;5.48;46.85
67052;BME280;53957;47.222;18.670;2023-03-15T17:02:53;99841.91;;;5.39;48.86
67052;BME280;53957;47.222;18.670;2023-03-15T17:17:02;99865.19;;;5.37;48.10
67052;BME280;53957;47.222;18.670;2023-03-15T17:20:23;99867.53;;;5.34;50.26
67052;BME280;53957;47.222;18.670;2023-03-15T17:23:30;99863.00;;;5.29;49.99
67052;BME280;53957;47.222;18.670;2023-03-15T17:26:57;99869.88;;;5.25;49.55
67052;BME280;53957;47.222;18.670;2023-03-15T17:30:15;99871.41;;;5.21;48.82
67052;BME280;53957;47.222;18.670;2023-03-15T17:33:19;99889.41;;;5.19;48.80
67052;BME280;53957;47.222;18.670;2023-03-15T17:36:24;99887.78;;;5.12;50.98
67052;BME280;53957;47.222;18.670;2023-03-15T17:39:29;99895.19;;;5.15;48.24